sensor_id;sensor_type;location;lat;lon;timestamp;pressure;altitude;pressure_sealevel;temperature;humidity
72961;BME280;61141;46.204;19.774;2022-09-03T00:00:23;100532.37;;;14.57;87.04
72961;BME280;61141;46.204;19.774;2022-09-03T00:03:32;100538.69;;;14.64;86.93
72961;BME280;61141;46.204;19.774;2022-09-03T00:06:44;100534.75;;;14.65;87.01
72961;BME280;61141;46.204;19.774;2022-09-03T00:09:56;100522.53;;;14.52;87.57
72961;BME280;61141;46.204;19.774;2022-09-03T00:13:04;100533.16;;;14.64;87.17
72961;BME280;61141;46.204;19.774;2022-09-03T00:16:11;100536.31;;;14.56;87.61
72961;BME280;61141;46.204;19.774;2022-09-03T00:19:17;100530.41;;;14.54;87.50
72961;BME280;61141;46.204;19.774;2022-09-03T00:29:28;100542.63;;;14.56;88.52
72961;BME280;61141;46.204;19.774;2022-09-03T00:32:57;100544.59;;;14.59;88.27
72961;BME280;61141;46.204;19.774;2022-09-03T00:36:03;100541.47;;;14.72;87.76
72961;BME280;61141;46.204;19.774;2022-09-03T00:39:10;100547.75;;;14.68;88.07
72961;BME280;61141;46.204;19.774;2022-09-03T00:45:31;100543.81;;;14.66;88.18
72961;BME280;61141;46.204;19.774;2022-09-03T00:55:34;100561.53;;;14.65;87.58
72961;BME280;61141;46.204;19.774;2022-09-03T00:59:02;100566.28;;;14.72;87.42
72961;BME280;61141;46.204;19.774;2022-09-03T01:05:57;100554.84;;;14.66;88.09
72961;BME280;61141;46.204;19.774;2022-09-03T01:29:09;100576.91;;;14.66;87.35
72961;BME280;61141;46.204;19.774;2022-09-03T01:32:30;100572.56;;;14.72;87.11
72961;BME280;61141;46.204;19.774;2022-09-03T01:39:02;100571.03;;;14.85;86.91
72961;BME280;61141;46.204;19.774;2022-09-03T01:45:55;100579.66;;;14.69;87.63
72961;BME280;61141;46.204;19.774;2022-09-03T01:49:30;100578.88;;;14.76;87.77
72961;BME280;61141;46.204;19.774;2022-09-03T01:56:42;100580.84;;;14.76;87.64
72961;BME280;61141;46.204;19.774;2022-09-03T02:00:12;100594.28;;;14.77;87.82
72961;BME280;61141;46.204;19.774;2022-09-03T02:03:16;100580.06;;;14.79;87.44
72961;BME280;61141;46.204;19.774;2022-09-03T02:06:19;100587.97;;;14.84;87.40
72961;BME280;61141;46.204;19.774;2022-09-03T02:09:23;100584.41;;;14.87;86.99
72961;BME280;61141;46.204;19.774;2022-09-03T02:12:32;100595.06;;;14.95;86.82
72961;BME280;61141;46.204;19.774;2022-09-03T02:15:41;100596.66;;;15.00;86.77
72961;BME280;61141;46.204;19.774;2022-09-03T02:18:49;100597.84;;;15.06;86.68
72961;BME280;61141;46.204;19.774;2022-09-03T02:21:53;100584.84;;;14.96;87.01
72961;BME280;61141;46.204;19.774;2022-09-03T02:24:58;100590.75;;;14.98;87.09
72961;BME280;61141;46.204;19.774;2022-09-03T02:28:02;100588.34;;;14.89;87.56
72961;BME280;61141;46.204;19.774;2022-09-03T02:31:05;100595.84;;;14.89;87.57
72961;BME280;61141;46.204;19.774;2022-09-03T02:34:08;100589.16;;;14.83;87.57
72961;BME280;61141;46.204;19.774;2022-09-03T02:37:13;100579.25;;;14.60;88.27
72961;BME280;61141;46.204;19.774;2022-09-03T02:40:17;100577.69;;;14.59;88.12
72961;BME280;61141;46.204;19.774;2022-09-03T02:46:45;100585.97;;;14.74;87.62
72961;BME280;61141;46.204;19.774;2022-09-03T02:49:50;100572.94;;;14.56;87.71
72961;BME280;61141;46.204;19.774;2022-09-03T02:52:52;100594.22;;;14.59;87.84
72961;BME280;61141;46.204;19.774;2022-09-03T02:56:00;100595.00;;;14.60;88.02
72961;BME280;61141;46.204;19.774;2022-09-03T02:59:04;100607.59;;;14.61;88.08
72961;BME280;61141;46.204;19.774;2022-09-03T03:02:09;100610.72;;;14.49;88.39
72961;BME280;61141;46.204;19.774;2022-09-03T03:05:20;100611.50;;;14.53;88.36
72961;BME280;61141;46.204;19.774;2022-09-03T03:08:27;100608.31;;;14.33;89.31
72961;BME280;61141;46.204;19.774;2022-09-03T03:11:30;100602.75;;;14.26;89.77
72961;BME280;61141;46.204;19.774;2022-09-03T03:14:33;100601.22;;;14.32;89.82
72961;BME280;61141;46.204;19.774;2022-09-03T03:17:36;100594.97;;;14.46;89.21
72961;BME280;61141;46.204;19.774;2022-09-03T03:20:40;100599.31;;;14.54;88.87
72961;BME280;61141;46.204;19.774;2022-09-03T03:23:43;100600.91;;;14.51;88.85
72961;BME280;61141;46.204;19.774;2022-09-03T03:26:47;100597.31;;;14.47;88.94
72961;BME280;61141;46.204;19.774;2022-09-03T03:29:49;100600.50;;;14.49;88.94
72961;BME280;61141;46.204;19.774;2022-09-03T03:32:53;100602.47;;;14.52;88.69
72961;BME280;61141;46.204;19.774;2022-09-03T03:35:56;100597.75;;;14.56;88.50
72961;BME280;61141;46.204;19.774;2022-09-03T03:38:59;100603.59;;;14.44;88.84
72961;BME280;61141;46.204;19.774;2022-09-03T03:42:02;100606.00;;;14.53;88.54
72961;BME280;61141;46.204;19.774;2022-09-03T03:45:06;100600.88;;;14.41;88.52
72961;BME280;61141;46.204;19.774;2022-09-03T03:48:09;100623.28;;;14.32;89.15
72961;BME280;61141;46.204;19.774;2022-09-03T03:51:12;100609.06;;;14.30;89.00
72961;BME280;61141;46.204;19.774;2022-09-03T03:54:15;100623.72;;;14.41;88.83
72961;BME280;61141;46.204;19.774;2022-09-03T03:57:20;100623.31;;;14.46;88.70
72961;BME280;61141;46.204;19.774;2022-09-03T04:00:23;100628.81;;;14.43;88.76
72961;BME280;61141;46.204;19.774;2022-09-03T04:03:26;100621.72;;;14.42;88.57
72961;BME280;61141;46.204;19.774;2022-09-03T04:06:30;100618.97;;;14.45;88.54
72961;BME280;61141;46.204;19.774;2022-09-03T04:09:33;100623.69;;;14.45;88.60
72961;BME280;61141;46.204;19.774;2022-09-03T04:12:36;100628.03;;;14.42;88.76
72961;BME280;61141;46.204;19.774;2022-09-03T04:15:39;100631.59;;;14.46;88.54
72961;BME280;61141;46.204;19.774;2022-09-03T04:18:44;100631.59;;;14.46;88.54
72961;BME280;61141;46.204;19.774;2022-09-03T04:21:47;100633.56;;;14.46;88.55
72961;BME280;61141;46.204;19.774;2022-09-03T04:24:49;100633.56;;;14.46;88.30
72961;BME280;61141;46.204;19.774;2022-09-03T04:27:52;100623.31;;;14.46;88.34
72961;BME280;61141;46.204;19.774;2022-09-03T04:31:02;100637.13;;;14.46;88.31
72961;BME280;61141;46.204;19.774;2022-09-03T04:34:05;100638.66;;;14.40;88.24
72961;BME280;61141;46.204;19.774;2022-09-03T04:37:08;100639.03;;;14.39;88.34
72961;BME280;61141;46.204;19.774;2022-09-03T04:40:16;100644.97;;;14.41;88.60
72961;BME280;61141;46.204;19.774;2022-09-03T04:43:19;100650.84;;;14.36;88.54
72961;BME280;61141;46.204;19.774;2022-09-03T04:46:25;100645.72;;;14.34;88.33
72961;BME280;61141;46.204;19.774;2022-09-03T04:49:28;100650.44;;;14.37;88.53
72961;BME280;61141;46.204;19.774;2022-09-03T04:52:31;100654.81;;;14.45;88.22
72961;BME280;61141;46.204;19.774;2022-09-03T04:55:35;100652.03;;;14.38;88.53
72961;BME280;61141;46.204;19.774;2022-09-03T04:58:39;100655.62;;;14.46;88.33
72961;BME280;61141;46.204;19.774;2022-09-03T05:01:45;100647.31;;;14.42;88.64
72961;BME280;61141;46.204;19.774;2022-09-03T05:04:48;100650.53;;;14.58;88.05
72961;BME280;61141;46.204;19.774;2022-09-03T05:07:51;100650.63;;;14.80;87.87
72961;BME280;61141;46.204;19.774;2022-09-03T05:10:58;100649.44;;;14.95;87.41
72961;BME280;61141;46.204;19.774;2022-09-03T05:14:04;100648.72;;;15.15;86.51
72961;BME280;61141;46.204;19.774;2022-09-03T05:17:14;100649.50;;;15.23;86.29
72961;BME280;61141;46.204;19.774;2022-09-03T05:20:16;100643.19;;;15.26;86.10
72961;BME280;61141;46.204;19.774;2022-09-03T05:23:19;100651.88;;;15.39;85.64
72961;BME280;61141;46.204;19.774;2022-09-03T05:26:29;100661.75;;;15.47;85.84
72961;BME280;61141;46.204;19.774;2022-09-03T05:29:32;100659.00;;;15.57;85.91
72961;BME280;61141;46.204;19.774;2022-09-03T05:32:35;100652.31;;;15.65;85.43
72961;BME280;61141;46.204;19.774;2022-09-03T05:35:38;100654.66;;;15.53;85.74
72961;BME280;61141;46.204;19.774;2022-09-03T05:38:42;100645.59;;;15.52;86.01
72961;BME280;61141;46.204;19.774;2022-09-03T05:41:45;100646.78;;;15.62;85.98
72961;BME280;61141;46.204;19.774;2022-09-03T05:44:48;100655.84;;;15.69;85.74
72961;BME280;61141;46.204;19.774;2022-09-03T05:47:51;100651.91;;;15.74;85.25
72961;BME280;61141;46.204;19.774;2022-09-03T05:51:14;100656.22;;;15.93;85.03
72961;BME280;61141;46.204;19.774;2022-09-03T05:54:18;100660.94;;;15.92;84.69
72961;BME280;61141;46.204;19.774;2022-09-03T05:57:21;100663.69;;;16.06;84.34
72961;BME280;61141;46.204;19.774;2022-09-03T06:00:24;100668.44;;;15.99;84.40
72961;BME280;61141;46.204;19.774;2022-09-03T06:03:27;100658.13;;;16.13;83.62
72961;BME280;61141;46.204;19.774;2022-09-03T06:06:32;100647.81;;;16.28;82.68
72961;BME280;61141;46.204;19.774;2022-09-03T06:09:35;100647.72;;;16.49;81.60
72961;BME280;61141;46.204;19.774;2022-09-03T06:12:38;100649.69;;;16.52;80.29
72961;BME280;61141;46.204;19.774;2022-09-03T06:15:41;100648.50;;;16.60;79.28
72961;BME280;61141;46.204;19.774;2022-09-03T06:18:44;100652.81;;;16.68;78.84
72961;BME280;61141;46.204;19.774;2022-09-03T06:21:47;100657.97;;;16.66;78.93
72961;BME280;61141;46.204;19.774;2022-09-03T06:24:50;100652.72;;;16.86;78.48
72961;BME280;61141;46.204;19.774;2022-09-03T06:27:52;100657.00;;;16.97;77.50
72961;BME280;61141;46.204;19.774;2022-09-03T06:30:59;100651.81;;;17.07;77.27
72961;BME280;61141;46.204;19.774;2022-09-03T06:34:04;100654.66;;;16.92;77.17
72961;BME280;61141;46.204;19.774;2022-09-03T06:37:07;100655.53;;;16.75;77.63
72961;BME280;61141;46.204;19.774;2022-09-03T06:40:10;100656.16;;;17.04;76.98
72961;BME280;61141;46.204;19.774;2022-09-03T06:43:22;100650.87;;;16.62;78.34
72961;BME280;61141;46.204;19.774;2022-09-03T06:46:26;100654.75;;;16.78;77.70
72961;BME280;61141;46.204;19.774;2022-09-03T06:49:29;100651.56;;;16.83;78.76
72961;BME280;61141;46.204;19.774;2022-09-03T06:52:33;100651.41;;;17.08;76.47
72961;BME280;61141;46.204;19.774;2022-09-03T06:55:36;100656.94;;;17.04;76.11
72961;BME280;61141;46.204;19.774;2022-09-03T06:58:44;100655.13;;;17.39;75.57
72961;BME280;61141;46.204;19.774;2022-09-03T07:01:47;100655.94;;;17.36;75.32
72961;BME280;61141;46.204;19.774;2022-09-03T07:04:50;100657.72;;;17.64;74.75
72961;BME280;61141;46.204;19.774;2022-09-03T07:07:52;100649.06;;;17.51;74.34
72961;BME280;61141;46.204;19.774;2022-09-03T07:10:55;100669.31;;;17.48;74.39
72961;BME280;61141;46.204;19.774;2022-09-03T07:13:59;100659.78;;;17.49;74.11
72961;BME280;61141;46.204;19.774;2022-09-03T07:17:02;100670.06;;;17.52;74.46
72961;BME280;61141;46.204;19.774;2022-09-03T07:20:05;100668.94;;;17.90;73.34
72961;BME280;61141;46.204;19.774;2022-09-03T07:23:08;100665.56;;;18.09;72.53
72961;BME280;61141;46.204;19.774;2022-09-03T07:26:17;100666.81;;;17.64;73.45
72961;BME280;61141;46.204;19.774;2022-09-03T07:29:21;100665.97;;;17.71;73.52
72961;BME280;61141;46.204;19.774;2022-09-03T07:32:24;100661.06;;;17.89;72.86
72961;BME280;61141;46.204;19.774;2022-09-03T07:35:27;100661.28;;;18.05;72.73
72961;BME280;61141;46.204;19.774;2022-09-03T07:38:32;100663.87;;;18.23;71.87
72961;BME280;61141;46.204;19.774;2022-09-03T07:41:35;100675.13;;;18.08;71.40
72961;BME280;61141;46.204;19.774;2022-09-03T07:44:38;100677.56;;;18.37;70.76
72961;BME280;61141;46.204;19.774;2022-09-03T07:47:47;100686.62;;;18.03;71.29
72961;BME280;61141;46.204;19.774;2022-09-03T07:50:51;100686.88;;;18.19;71.56
72961;BME280;61141;46.204;19.774;2022-09-03T07:53:57;100691.34;;;18.06;71.97
72961;BME280;61141;46.204;19.774;2022-09-03T07:57:00;100691.88;;;18.32;71.26
72961;BME280;61141;46.204;19.774;2022-09-03T08:00:05;100686.06;;;18.23;71.50
72961;BME280;61141;46.204;19.774;2022-09-03T08:03:12;100687.47;;;18.38;70.71
72961;BME280;61141;46.204;19.774;2022-09-03T08:06:17;100688.81;;;18.60;69.78
72961;BME280;61141;46.204;19.774;2022-09-03T08:09:20;100685.38;;;18.45;69.48
72961;BME280;61141;46.204;19.774;2022-09-03T08:12:23;100681.03;;;18.78;67.92
72961;BME280;61141;46.204;19.774;2022-09-03T08:15:26;100679.66;;;18.63;69.28
72961;BME280;61141;46.204;19.774;2022-09-03T08:18:29;100689.66;;;18.57;69.57
72961;BME280;61141;46.204;19.774;2022-09-03T08:21:34;100684.75;;;18.68;68.73
72961;BME280;61141;46.204;19.774;2022-09-03T08:24:37;100694.47;;;18.83;67.44
72961;BME280;61141;46.204;19.774;2022-09-03T08:27:39;100696.50;;;18.79;67.90
72961;BME280;61141;46.204;19.774;2022-09-03T08:30:43;100690.75;;;18.93;67.55
72961;BME280;61141;46.204;19.774;2022-09-03T08:33:48;100699.31;;;18.75;67.93
72961;BME280;61141;46.204;19.774;2022-09-03T08:36:52;100693.81;;;19.02;67.03
72961;BME280;61141;46.204;19.774;2022-09-03T08:39:55;100686.56;;;19.39;65.93
72961;BME280;61141;46.204;19.774;2022-09-03T08:43:14;100687.13;;;19.26;65.51
72961;BME280;61141;46.204;19.774;2022-09-03T08:46:20;100694.34;;;19.47;65.45
72961;BME280;61141;46.204;19.774;2022-09-03T08:49:41;100699.25;;;19.36;65.67
72961;BME280;61141;46.204;19.774;2022-09-03T08:52:55;100699.94;;;19.17;65.74
72961;BME280;61141;46.204;19.774;2022-09-03T08:56:07;100689.06;;;19.79;64.93
72961;BME280;61141;46.204;19.774;2022-09-03T08:59:12;100689.16;;;19.72;64.60
72961;BME280;61141;46.204;19.774;2022-09-03T09:05:28;100695.34;;;20.07;64.19
72961;BME280;61141;46.204;19.774;2022-09-03T09:09:18;100684.16;;;19.87;64.36
72961;BME280;61141;46.204;19.774;2022-09-03T09:16:21;100680.53;;;20.33;61.86
72961;BME280;61141;46.204;19.774;2022-09-03T09:20:04;100684.22;;;20.07;62.83
72961;BME280;61141;46.204;19.774;2022-09-03T09:23:36;100675.16;;;20.22;61.89
72961;BME280;61141;46.204;19.774;2022-09-03T09:26:41;100685.78;;;20.08;61.77
72961;BME280;61141;46.204;19.774;2022-09-03T09:29:49;100687.75;;;20.30;61.56
72961;BME280;61141;46.204;19.774;2022-09-03T09:32:53;100687.13;;;20.62;60.82
72961;BME280;61141;46.204;19.774;2022-09-03T09:36:23;100689.25;;;20.74;61.91
72961;BME280;61141;46.204;19.774;2022-09-03T09:39:26;100700.03;;;21.28;60.70
72961;BME280;61141;46.204;19.774;2022-09-03T09:42:33;100690.16;;;21.07;59.79
72961;BME280;61141;46.204;19.774;2022-09-03T09:45:37;100699.78;;;21.54;58.62
72961;BME280;61141;46.204;19.774;2022-09-03T09:48:56;100700.22;;;21.85;56.32
72961;BME280;61141;46.204;19.774;2022-09-03T09:52:11;100694.03;;;21.78;56.83
72961;BME280;61141;46.204;19.774;2022-09-03T09:55:17;100694.37;;;21.31;57.68
72961;BME280;61141;46.204;19.774;2022-09-03T09:58:23;100695.25;;;21.60;56.37
72961;BME280;61141;46.204;19.774;2022-09-03T10:01:26;100698.91;;;21.74;57.00
72961;BME280;61141;46.204;19.774;2022-09-03T10:04:32;100694.50;;;21.92;56.19
72961;BME280;61141;46.204;19.774;2022-09-03T10:07:35;100696.66;;;22.01;55.79
72961;BME280;61141;46.204;19.774;2022-09-03T10:10:45;100690.63;;;21.86;55.62
72961;BME280;61141;46.204;19.774;2022-09-03T10:13:51;100689.31;;;22.07;54.74
72961;BME280;61141;46.204;19.774;2022-09-03T10:17:06;100684.75;;;22.13;54.91
72961;BME280;61141;46.204;19.774;2022-09-03T10:20:29;100684.78;;;22.42;54.68
72961;BME280;61141;46.204;19.774;2022-09-03T10:27:09;100690.00;;;22.40;54.01
72961;BME280;61141;46.204;19.774;2022-09-03T10:30:15;100690.72;;;21.99;54.75
72961;BME280;61141;46.204;19.774;2022-09-03T10:33:25;100685.34;;;22.49;53.44
72961;BME280;61141;46.204;19.774;2022-09-03T10:36:38;100686.88;;;21.93;54.33
72961;BME280;61141;46.204;19.774;2022-09-03T10:40:12;100683.66;;;21.94;54.92
72961;BME280;61141;46.204;19.774;2022-09-03T10:53:46;100665.56;;;22.72;51.71
72961;BME280;61141;46.204;19.774;2022-09-03T10:57:36;100682.97;;;22.64;50.08
72961;BME280;61141;46.204;19.774;2022-09-03T11:00:51;100680.78;;;22.55;50.80
72961;BME280;61141;46.204;19.774;2022-09-03T11:07:20;100677.72;;;22.78;50.58
72961;BME280;61141;46.204;19.774;2022-09-03T11:10:30;100676.97;;;23.03;49.70
72961;BME280;61141;46.204;19.774;2022-09-03T11:13:44;100683.81;;;23.27;49.04
72961;BME280;61141;46.204;19.774;2022-09-03T11:16:52;100683.69;;;22.80;48.62
72961;BME280;61141;46.204;19.774;2022-09-03T11:23:20;100679.34;;;23.55;46.85
72961;BME280;61141;46.204;19.774;2022-09-03T11:26:24;100679.56;;;23.23;45.96
72961;BME280;61141;46.204;19.774;2022-09-03T11:32:57;100670.06;;;23.46;45.17
72961;BME280;61141;46.204;19.774;2022-09-03T11:36:04;100681.66;;;23.82;45.45
72961;BME280;61141;46.204;19.774;2022-09-03T11:39:24;100674.34;;;23.97;45.24
72961;BME280;61141;46.204;19.774;2022-09-03T11:42:37;100667.06;;;23.40;46.22
72961;BME280;61141;46.204;19.774;2022-09-03T11:45:40;100667.13;;;23.62;44.88
72961;BME280;61141;46.204;19.774;2022-09-03T11:48:45;100661.31;;;23.69;44.68
72961;BME280;61141;46.204;19.774;2022-09-03T11:51:57;100660.47;;;23.93;44.54
72961;BME280;61141;46.204;19.774;2022-09-03T11:55:01;100662.44;;;23.59;44.95
72961;BME280;61141;46.204;19.774;2022-09-03T11:58:16;100662.56;;;23.55;46.63
72961;BME280;61141;46.204;19.774;2022-09-03T12:01:22;100663.06;;;23.75;46.51
72961;BME280;61141;46.204;19.774;2022-09-03T12:18:10;100652.19;;;24.24;46.38
72961;BME280;61141;46.204;19.774;2022-09-03T12:21:21;100658.03;;;24.39;46.96
72961;BME280;61141;46.204;19.774;2022-09-03T12:24:26;100652.78;;;24.07;45.83
72961;BME280;61141;46.204;19.774;2022-09-03T12:27:39;100638.91;;;24.16;44.66
72961;BME280;61141;46.204;19.774;2022-09-03T12:30:44;100654.13;;;24.15;44.64
72961;BME280;61141;46.204;19.774;2022-09-03T12:33:57;100658.31;;;24.32;45.82
72961;BME280;61141;46.204;19.774;2022-09-03T12:37:17;100659.88;;;24.33;44.92
72961;BME280;61141;46.204;19.774;2022-09-03T12:40:42;100643.59;;;24.19;44.20
72961;BME280;61141;46.204;19.774;2022-09-03T12:44:05;100640.44;;;24.60;43.26
72961;BME280;61141;46.204;19.774;2022-09-03T12:50:31;100631.88;;;24.64;44.34
72961;BME280;61141;46.204;19.774;2022-09-03T12:53:35;100622.97;;;24.56;43.17
72961;BME280;61141;46.204;19.774;2022-09-03T12:56:39;100627.97;;;24.61;42.79
72961;BME280;61141;46.204;19.774;2022-09-03T12:59:44;100622.94;;;24.78;43.17
72961;BME280;61141;46.204;19.774;2022-09-03T13:06:00;100625.12;;;24.74;43.20
72961;BME280;61141;46.204;19.774;2022-09-03T13:09:07;100624.44;;;24.91;42.55
72961;BME280;61141;46.204;19.774;2022-09-03T13:12:28;100629.84;;;24.86;41.02
72961;BME280;61141;46.204;19.774;2022-09-03T13:15:35;100615.25;;;24.69;42.27
72961;BME280;61141;46.204;19.774;2022-09-03T13:22:14;100609.41;;;24.76;41.07
72961;BME280;61141;46.204;19.774;2022-09-03T13:26:29;100605.53;;;24.30;41.96
72961;BME280;61141;46.204;19.774;2022-09-03T13:29:25;100604.09;;;24.04;41.69
72961;BME280;61141;46.204;19.774;2022-09-03T13:36:14;100595.94;;;24.62;43.64
72961;BME280;61141;46.204;19.774;2022-09-03T13:39:24;100604.50;;;24.37;44.14
72961;BME280;61141;46.204;19.774;2022-09-03T13:45:40;100609.66;;;24.69;42.38
72961;BME280;61141;46.204;19.774;2022-09-03T13:48:47;100610.72;;;24.84;42.79
72961;BME280;61141;46.204;19.774;2022-09-03T13:52:18;100597.81;;;24.34;43.21
72961;BME280;61141;46.204;19.774;2022-09-03T13:55:35;100596.44;;;25.00;42.74
72961;BME280;61141;46.204;19.774;2022-09-03T13:58:46;100602.16;;;24.88;41.47
72961;BME280;61141;46.204;19.774;2022-09-03T14:05:14;100598.75;;;24.62;42.37
72961;BME280;61141;46.204;19.774;2022-09-03T14:08:24;100589.78;;;25.07;42.67
72961;BME280;61141;46.204;19.774;2022-09-03T14:11:40;100589.94;;;25.22;43.01
72961;BME280;61141;46.204;19.774;2022-09-03T14:15:19;100587.69;;;24.89;43.38
72961;BME280;61141;46.204;19.774;2022-09-03T14:21:44;100593.41;;;24.86;43.70
72961;BME280;61141;46.204;19.774;2022-09-03T14:24:54;100579.63;;;25.00;42.28
72961;BME280;61141;46.204;19.774;2022-09-03T14:28:27;100580.47;;;24.79;42.56
72961;BME280;61141;46.204;19.774;2022-09-03T14:32:21;100590.38;;;24.71;42.68
72961;BME280;61141;46.204;19.774;2022-09-03T14:35:34;100578.88;;;24.78;42.40
72961;BME280;61141;46.204;19.774;2022-09-03T14:42:06;100586.78;;;24.71;43.31
72961;BME280;61141;46.204;19.774;2022-09-03T14:52:16;100581.72;;;23.70;45.54
72961;BME280;61141;46.204;19.774;2022-09-03T14:55:30;100573.38;;;23.91;45.16
72961;BME280;61141;46.204;19.774;2022-09-03T15:05:46;100590.66;;;23.77;44.76
72961;BME280;61141;46.204;19.774;2022-09-03T15:09:10;100580.00;;;23.85;45.63
72961;BME280;61141;46.204;19.774;2022-09-03T15:12:21;100585.50;;;24.10;44.32
72961;BME280;61141;46.204;19.774;2022-09-03T15:15:43;100578.66;;;24.11;44.77
72961;BME280;61141;46.204;19.774;2022-09-03T15:22:18;100571.59;;;24.07;45.92
72961;BME280;61141;46.204;19.774;2022-09-03T15:25:32;100569.09;;;24.00;46.72
72961;BME280;61141;46.204;19.774;2022-09-03T15:29:05;100571.41;;;23.79;47.71
72961;BME280;61141;46.204;19.774;2022-09-03T15:35:54;100574.12;;;23.70;47.43
72961;BME280;61141;46.204;19.774;2022-09-03T15:39:05;100584.09;;;23.59;47.91
72961;BME280;61141;46.204;19.774;2022-09-03T15:42:13;100582.72;;;23.42;48.22
72961;BME280;61141;46.204;19.774;2022-09-03T15:45:33;100585.59;;;23.51;47.44
72961;BME280;61141;46.204;19.774;2022-09-03T15:48:57;100580.38;;;23.40;47.44
72961;BME280;61141;46.204;19.774;2022-09-03T15:52:29;100579.25;;;23.25;48.25
72961;BME280;61141;46.204;19.774;2022-09-03T15:55:41;100571.12;;;23.05;48.64
72961;BME280;61141;46.204;19.774;2022-09-03T15:58:52;100570.44;;;23.14;48.36
72961;BME280;61141;46.204;19.774;2022-09-03T16:02:17;100572.00;;;23.15;48.56
72961;BME280;61141;46.204;19.774;2022-09-03T16:05:46;100572.56;;;23.10;48.37
72961;BME280;61141;46.204;19.774;2022-09-03T16:08:54;100583.63;;;23.01;48.99
72961;BME280;61141;46.204;19.774;2022-09-03T16:12:13;100573.25;;;22.89;48.82
72961;BME280;61141;46.204;19.774;2022-09-03T16:15:25;100569.78;;;22.85;49.20
72961;BME280;61141;46.204;19.774;2022-09-03T16:18:37;100576.41;;;22.78;49.17
72961;BME280;61141;46.204;19.774;2022-09-03T16:25:01;100565.66;;;22.76;50.79
72961;BME280;61141;46.204;19.774;2022-09-03T16:28:18;100573.25;;;22.63;53.06
72961;BME280;61141;46.204;19.774;2022-09-03T16:41:28;100589.78;;;21.88;55.87
72961;BME280;61141;46.204;19.774;2022-09-03T16:52:02;100579.06;;;21.25;58.28
72961;BME280;61141;46.204;19.774;2022-09-03T16:58:23;100586.47;;;20.80;61.11
72961;BME280;61141;46.204;19.774;2022-09-03T17:04:53;100594.06;;;20.43;62.72
72961;BME280;61141;46.204;19.774;2022-09-03T17:08:11;100593.13;;;20.30;63.12
72961;BME280;61141;46.204;19.774;2022-09-03T17:47:38;100624.66;;;18.85;69.51
72961;BME280;61141;46.204;19.774;2022-09-03T17:53:56;100632.38;;;18.70;69.20
72961;BME280;61141;46.204;19.774;2022-09-03T18:00:25;100654.00;;;18.55;70.16
72961;BME280;61141;46.204;19.774;2022-09-03T18:03:43;100660.31;;;18.56;70.02
72961;BME280;61141;46.204;19.774;2022-09-03T18:06:59;100653.34;;;18.41;70.26
72961;BME280;61141;46.204;19.774;2022-09-03T18:14:04;100659.81;;;18.31;70.94
72961;BME280;61141;46.204;19.774;2022-09-03T18:17:19;100651.09;;;18.29;70.87
72961;BME280;61141;46.204;19.774;2022-09-03T18:20:24;100655.09;;;18.28;71.58
72961;BME280;61141;46.204;19.774;2022-09-03T18:24:30;100656.78;;;18.18;72.01
72961;BME280;61141;46.204;19.774;2022-09-03T18:27:57;100670.72;;;18.11;72.52
72961;BME280;61141;46.204;19.774;2022-09-03T18:31:22;100667.16;;;18.10;72.67
72961;BME280;61141;46.204;19.774;2022-09-03T18:34:45;100661.69;;;18.03;72.91
72961;BME280;61141;46.204;19.774;2022-09-03T18:38:07;100668.00;;;18.04;72.81
72961;BME280;61141;46.204;19.774;2022-09-03T18:41:51;100666.81;;;18.05;73.17
72961;BME280;61141;46.204;19.774;2022-09-03T18:45:39;100668.50;;;17.95;73.79
72961;BME280;61141;46.204;19.774;2022-09-03T18:54:11;100653.72;;;17.68;74.29
72961;BME280;61141;46.204;19.774;2022-09-03T18:58:09;100671.09;;;17.76;74.71
72961;BME280;61141;46.204;19.774;2022-09-03T19:01:40;100661.28;;;17.64;75.10
72961;BME280;61141;46.204;19.774;2022-09-03T19:05:26;100666.78;;;17.68;75.01
72961;BME280;61141;46.204;19.774;2022-09-03T19:20:03;100661.03;;;17.44;76.42
72961;BME280;61141;46.204;19.774;2022-09-03T19:23:26;100675.69;;;17.41;76.81
72961;BME280;61141;46.204;19.774;2022-09-03T19:27:07;100665.41;;;17.42;76.50
72961;BME280;61141;46.204;19.774;2022-09-03T19:34:31;100669.41;;;17.34;76.48
72961;BME280;61141;46.204;19.774;2022-09-03T19:38:21;100670.25;;;17.27;77.00
72961;BME280;61141;46.204;19.774;2022-09-03T19:45:19;100673.47;;;17.19;77.37
72961;BME280;61141;46.204;19.774;2022-09-03T19:48:47;100675.81;;;17.24;76.77
72961;BME280;61141;46.204;19.774;2022-09-03T19:55:44;100684.56;;;17.15;77.43
72961;BME280;61141;46.204;19.774;2022-09-03T19:59:13;100686.97;;;17.10;78.01
72961;BME280;61141;46.204;19.774;2022-09-03T20:02:39;100686.66;;;17.00;78.09
72961;BME280;61141;46.204;19.774;2022-09-03T20:06:03;100683.94;;;16.90;78.48
72961;BME280;61141;46.204;19.774;2022-09-03T20:09:34;100685.50;;;16.87;78.50
72961;BME280;61141;46.204;19.774;2022-09-03T20:16:37;100696.19;;;16.85;78.73
72961;BME280;61141;46.204;19.774;2022-09-03T20:23:35;100699.81;;;16.72;78.99
72961;BME280;61141;46.204;19.774;2022-09-03T20:27:06;100703.00;;;16.67;79.15
72961;BME280;61141;46.204;19.774;2022-09-03T20:30:21;100706.56;;;16.64;79.40
72961;BME280;61141;46.204;19.774;2022-09-03T20:37:18;100708.56;;;16.63;79.49
72961;BME280;61141;46.204;19.774;2022-09-03T20:40:52;100715.28;;;16.52;79.95
72961;BME280;61141;46.204;19.774;2022-09-03T20:51:16;100706.22;;;16.40;80.51
72961;BME280;61141;46.204;19.774;2022-09-03T20:54:29;100713.34;;;16.41;80.47